sensor_id;sensor_type;location;lat;lon;timestamp;pressure;altitude;pressure_sealevel;temperature;humidity
11856;BME280;5987;53.140;8.904;2022-11-11T00:01:13;102638.78;;;10.05;100.00
11856;BME280;5987;53.140;8.904;2022-11-11T00:04:17;102659.75;;;10.08;100.00
11856;BME280;5987;53.140;8.904;2022-11-11T00:07:22;102658.91;;;10.01;100.00
11856;BME280;5987;53.140;8.904;2022-11-11T00:10:26;102659.84;;;9.99;100.00
11856;BME280;5987;53.140;8.904;2022-11-11T00:13:31;102658.94;;;9.96;100.00
11856;BME280;5987;53.140;8.904;2022-11-11T00:16:35;102658.97;;;9.92;100.00
11856;BME280;5987;53.140;8.904;2022-11-11T00:19:52;102674.72;;;9.92;100.00
11856;BME280;5987;53.140;8.904;2022-11-11T00:23:21;102673.84;;;9.88;100.00
11856;BME280;5987;53.140;8.904;2022-11-11T00:26:42;102671.25;;;9.87;100.00
11856;BME280;5987;53.140;8.904;2022-11-11T00:29:46;102666.03;;;9.81;100.00
11856;BME280;5987;53.140;8.904;2022-11-11T00:32:50;102671.28;;;9.71;100.00
11856;BME280;5987;53.140;8.904;2022-11-11T00:35:54;102667.81;;;9.63;100.00
11856;BME280;5987;53.140;8.904;2022-11-11T00:38:59;102682.72;;;9.52;100.00
11856;BME280;5987;53.140;8.904;2022-11-11T00:42:03;102686.25;;;9.41;100.00
11856;BME280;5987;53.140;8.904;2022-11-11T00:45:09;102689.75;;;9.37;100.00
11856;BME280;5987;53.140;8.904;2022-11-11T00:48:13;102680.16;;;9.27;100.00
11856;BME280;5987;53.140;8.904;2022-11-11T00:51:34;102674.91;;;9.18;100.00
11856;BME280;5987;53.140;8.904;2022-11-11T00:54:39;102662.72;;;9.04;100.00
11856;BME280;5987;53.140;8.904;2022-11-11T00:57:42;102661.84;;;8.99;100.00
11856;BME280;5987;53.140;8.904;2022-11-11T01:00:46;102665.34;;;8.95;100.00
11856;BME280;5987;53.140;8.904;2022-11-11T01:03:51;102658.34;;;8.88;100.00
11856;BME280;5987;53.140;8.904;2022-11-11T01:06:55;102649.63;;;8.81;100.00
11856;BME280;5987;53.140;8.904;2022-11-11T01:10:00;102655.72;;;8.75;100.00
11856;BME280;5987;53.140;8.904;2022-11-11T01:13:06;102653.09;;;8.65;100.00
11856;BME280;5987;53.140;8.904;2022-11-11T01:16:18;102664.47;;;8.62;100.00
11856;BME280;5987;53.140;8.904;2022-11-11T01:19:22;102664.44;;;8.61;100.00
11856;BME280;5987;53.140;8.904;2022-11-11T01:22:27;102664.44;;;8.50;100.00
11856;BME280;5987;53.140;8.904;2022-11-11T01:25:34;102669.69;;;8.50;100.00
11856;BME280;5987;53.140;8.904;2022-11-11T01:28:38;102673.16;;;8.50;100.00
11856;BME280;5987;53.140;8.904;2022-11-11T01:31:42;102674.00;;;8.43;100.00
11856;BME280;5987;53.140;8.904;2022-11-11T01:34:46;102674.00;;;8.40;100.00
11856;BME280;5987;53.140;8.904;2022-11-11T01:37:50;102667.00;;;8.37;100.00
11856;BME280;5987;53.140;8.904;2022-11-11T01:40:55;102660.88;;;8.26;100.00
11856;BME280;5987;53.140;8.904;2022-11-11T01:44:00;102649.50;;;8.24;100.00
11856;BME280;5987;53.140;8.904;2022-11-11T01:47:05;102648.66;;;8.25;100.00
11856;BME280;5987;53.140;8.904;2022-11-11T01:50:10;102658.22;;;8.18;100.00
11856;BME280;5987;53.140;8.904;2022-11-11T01:53:13;102669.59;;;8.22;100.00
11856;BME280;5987;53.140;8.904;2022-11-11T01:56:19;102666.06;;;8.17;100.00
11856;BME280;5987;53.140;8.904;2022-11-11T01:59:23;102658.22;;;8.14;100.00
11856;BME280;5987;53.140;8.904;2022-11-11T02:02:36;102646.91;;;8.12;100.00
11856;BME280;5987;53.140;8.904;2022-11-11T02:05:41;102662.59;;;8.12;100.00
11856;BME280;5987;53.140;8.904;2022-11-11T02:08:45;102665.22;;;8.13;100.00
11856;BME280;5987;53.140;8.904;2022-11-11T02:11:52;102655.59;;;8.12;100.00
11856;BME280;5987;53.140;8.904;2022-11-11T02:15:13;102655.59;;;8.14;100.00
11856;BME280;5987;53.140;8.904;2022-11-11T02:18:18;102660.84;;;8.15;100.00
11856;BME280;5987;53.140;8.904;2022-11-11T02:21:31;102668.72;;;8.20;100.00
11856;BME280;5987;53.140;8.904;2022-11-11T02:24:39;102654.75;;;8.24;100.00
11856;BME280;5987;53.140;8.904;2022-11-11T02:27:47;102646.91;;;8.24;100.00
11856;BME280;5987;53.140;8.904;2022-11-11T02:30:52;102651.28;;;8.27;100.00
11856;BME280;5987;53.140;8.904;2022-11-11T02:33:56;102656.50;;;8.30;100.00
11856;BME280;5987;53.140;8.904;2022-11-11T02:37:04;102646.94;;;8.27;100.00
11856;BME280;5987;53.140;8.904;2022-11-11T02:40:14;102644.28;;;8.19;100.00
11856;BME280;5987;53.140;8.904;2022-11-11T02:43:18;102650.38;;;8.17;100.00
11856;BME280;5987;53.140;8.904;2022-11-11T02:46:23;102653.84;;;8.06;100.00
11856;BME280;5987;53.140;8.904;2022-11-11T02:49:27;102659.94;;;7.99;100.00
11856;BME280;5987;53.140;8.904;2022-11-11T02:52:30;102663.41;;;7.97;100.00
11856;BME280;5987;53.140;8.904;2022-11-11T02:55:35;102665.13;;;7.88;100.00
11856;BME280;5987;53.140;8.904;2022-11-11T02:58:39;102664.19;;;7.80;100.00
11856;BME280;5987;53.140;8.904;2022-11-11T03:01:43;102668.56;;;7.77;100.00
11856;BME280;5987;53.140;8.904;2022-11-11T03:04:47;102677.25;;;7.69;100.00
11856;BME280;5987;53.140;8.904;2022-11-11T03:07:51;102686.81;;;7.67;100.00
11856;BME280;5987;53.140;8.904;2022-11-11T03:10:56;102679.81;;;7.63;100.00
11856;BME280;5987;53.140;8.904;2022-11-11T03:14:00;102685.94;;;7.65;100.00
11856;BME280;5987;53.140;8.904;2022-11-11T03:17:04;102672.88;;;7.65;100.00
11856;BME280;5987;53.140;8.904;2022-11-11T03:20:25;102667.59;;;7.61;100.00
11856;BME280;5987;53.140;8.904;2022-11-11T03:23:46;102669.34;;;7.60;100.00
11856;BME280;5987;53.140;8.904;2022-11-11T03:26:51;102675.44;;;7.62;100.00
11856;BME280;5987;53.140;8.904;2022-11-11T03:29:55;102686.78;;;7.61;100.00
11856;BME280;5987;53.140;8.904;2022-11-11T03:32:59;102679.78;;;7.57;100.00
11856;BME280;5987;53.140;8.904;2022-11-11T03:36:03;102680.66;;;7.54;100.00
11856;BME280;5987;53.140;8.904;2022-11-11T03:39:07;102686.72;;;7.55;100.00
11856;BME280;5987;53.140;8.904;2022-11-11T03:42:11;102701.56;;;7.54;100.00
11856;BME280;5987;53.140;8.904;2022-11-11T03:45:15;102702.47;;;7.61;100.00
11856;BME280;5987;53.140;8.904;2022-11-11T03:48:18;102703.34;;;7.65;100.00
11856;BME280;5987;53.140;8.904;2022-11-11T03:51:22;102700.78;;;7.69;100.00
11856;BME280;5987;53.140;8.904;2022-11-11T03:54:26;102699.03;;;7.76;100.00
11856;BME280;5987;53.140;8.904;2022-11-11T03:57:31;102704.34;;;7.84;100.00
11856;BME280;5987;53.140;8.904;2022-11-11T04:00:35;102697.41;;;7.92;100.00
11856;BME280;5987;53.140;8.904;2022-11-11T04:03:38;102696.50;;;7.92;100.00
11856;BME280;5987;53.140;8.904;2022-11-11T04:06:59;102687.81;;;7.99;100.00
11856;BME280;5987;53.140;8.904;2022-11-11T04:10:32;102686.97;;;8.03;100.00
11856;BME280;5987;53.140;8.904;2022-11-11T04:13:38;102688.72;;;8.05;100.00
11856;BME280;5987;53.140;8.904;2022-11-11T04:17:00;102696.59;;;8.13;100.00
11856;BME280;5987;53.140;8.904;2022-11-11T04:20:04;102696.59;;;8.13;100.00
11856;BME280;5987;53.140;8.904;2022-11-11T04:23:25;102702.69;;;8.11;100.00
11856;BME280;5987;53.140;8.904;2022-11-11T04:26:29;102700.09;;;8.15;100.00
11856;BME280;5987;53.140;8.904;2022-11-11T04:29:33;102706.22;;;8.17;100.00
11856;BME280;5987;53.140;8.904;2022-11-11T04:32:37;102700.97;;;8.16;100.00
11856;BME280;5987;53.140;8.904;2022-11-11T04:35:41;102701.84;;;8.16;100.00
11856;BME280;5987;53.140;8.904;2022-11-11T04:38:45;102702.72;;;8.17;100.00
11856;BME280;5987;53.140;8.904;2022-11-11T04:42:06;102705.31;;;8.17;100.00
11856;BME280;5987;53.140;8.904;2022-11-11T04:45:13;102697.47;;;8.18;100.00
11856;BME280;5987;53.140;8.904;2022-11-11T04:48:33;102687.00;;;8.17;100.00
11856;BME280;5987;53.140;8.904;2022-11-11T04:51:36;102687.00;;;8.17;100.00
11856;BME280;5987;53.140;8.904;2022-11-11T04:54:56;102693.13;;;8.17;100.00
11856;BME280;5987;53.140;8.904;2022-11-11T04:58:25;102699.22;;;8.21;100.00
11856;BME280;5987;53.140;8.904;2022-11-11T05:01:30;102701.00;;;8.23;100.00
11856;BME280;5987;53.140;8.904;2022-11-11T05:04:53;102708.84;;;8.25;100.00
11856;BME280;5987;53.140;8.904;2022-11-11T05:07:57;102709.72;;;8.24;100.00
11856;BME280;5987;53.140;8.904;2022-11-11T05:11:20;102710.59;;;8.28;100.00
11856;BME280;5987;53.140;8.904;2022-11-11T05:14:23;102713.22;;;8.29;100.00
11856;BME280;5987;53.140;8.904;2022-11-11T05:17:46;102704.47;;;8.24;100.00
11856;BME280;5987;53.140;8.904;2022-11-11T05:21:14;102708.00;;;8.32;100.00
11856;BME280;5987;53.140;8.904;2022-11-11T05:24:24;102704.50;;;8.30;100.00
11856;BME280;5987;53.140;8.904;2022-11-11T05:27:45;102692.28;;;8.29;100.00
11856;BME280;5987;53.140;8.904;2022-11-11T05:30:49;102696.66;;;8.30;100.00
11856;BME280;5987;53.140;8.904;2022-11-11T05:33:56;102694.91;;;8.34;100.00
11856;BME280;5987;53.140;8.904;2022-11-11T05:37:04;102693.19;;;8.34;100.00
11856;BME280;5987;53.140;8.904;2022-11-11T05:40:09;102693.19;;;8.36;100.00
11856;BME280;5987;53.140;8.904;2022-11-11T05:43:13;102697.56;;;8.38;100.00
11856;BME280;5987;53.140;8.904;2022-11-11T05:46:19;102691.47;;;8.41;100.00
11856;BME280;5987;53.140;8.904;2022-11-11T05:49:27;102692.34;;;8.45;100.00
11856;BME280;5987;53.140;8.904;2022-11-11T05:52:30;102687.13;;;8.48;100.00
11856;BME280;5987;53.140;8.904;2022-11-11T05:55:34;102691.50;;;8.46;100.00
11856;BME280;5987;53.140;8.904;2022-11-11T05:58:38;102697.59;;;8.51;100.00
11856;BME280;5987;53.140;8.904;2022-11-11T06:01:42;102699.34;;;8.52;100.00
11856;BME280;5987;53.140;8.904;2022-11-11T06:04:47;102694.09;;;8.55;100.00
11856;BME280;5987;53.140;8.904;2022-11-11T06:07:50;102695.00;;;8.55;100.00
11856;BME280;5987;53.140;8.904;2022-11-11T06:10:55;102701.09;;;8.61;100.00
11856;BME280;5987;53.140;8.904;2022-11-11T06:13:59;102713.31;;;8.63;100.00
11856;BME280;5987;53.140;8.904;2022-11-11T06:17:04;102723.81;;;8.63;100.00
11856;BME280;5987;53.140;8.904;2022-11-11T06:20:10;102723.81;;;8.65;100.00
11856;BME280;5987;53.140;8.904;2022-11-11T06:23:13;102729.94;;;8.65;100.00
11856;BME280;5987;53.140;8.904;2022-11-11T06:26:17;102721.19;;;8.66;100.00
11856;BME280;5987;53.140;8.904;2022-11-11T06:29:21;102731.66;;;8.66;100.00
11856;BME280;5987;53.140;8.904;2022-11-11T06:32:25;102734.31;;;8.68;100.00
11856;BME280;5987;53.140;8.904;2022-11-11T06:35:30;102737.78;;;8.68;100.00
11856;BME280;5987;53.140;8.904;2022-11-11T06:38:33;102741.28;;;8.70;100.00
11856;BME280;5987;53.140;8.904;2022-11-11T06:41:37;102753.50;;;8.71;100.00
11856;BME280;5987;53.140;8.904;2022-11-11T06:44:41;102751.78;;;8.73;100.00
11856;BME280;5987;53.140;8.904;2022-11-11T06:47:44;102760.50;;;8.72;100.00
11856;BME280;5987;53.140;8.904;2022-11-11T06:50:50;102767.50;;;8.73;100.00
11856;BME280;5987;53.140;8.904;2022-11-11T06:53:54;102769.22;;;8.74;100.00
11856;BME280;5987;53.140;8.904;2022-11-11T06:56:57;102763.13;;;8.74;100.00
11856;BME280;5987;53.140;8.904;2022-11-11T07:00:10;102770.97;;;8.75;100.00
11856;BME280;5987;53.140;8.904;2022-11-11T07:03:16;102763.13;;;8.74;100.00
11856;BME280;5987;53.140;8.904;2022-11-11T07:06:28;102784.06;;;8.80;100.00
11856;BME280;5987;53.140;8.904;2022-11-11T07:09:31;102785.81;;;8.81;100.00
11856;BME280;5987;53.140;8.904;2022-11-11T07:12:35;102784.06;;;8.82;100.00
11856;BME280;5987;53.140;8.904;2022-11-11T07:15:41;102795.44;;;8.84;100.00
11856;BME280;5987;53.140;8.904;2022-11-11T07:18:44;102791.97;;;8.88;100.00
11856;BME280;5987;53.140;8.904;2022-11-11T07:21:49;102790.19;;;8.82;100.00
11856;BME280;5987;53.140;8.904;2022-11-11T07:24:53;102799.81;;;8.83;100.00
11856;BME280;5987;53.140;8.904;2022-11-11T07:27:57;102793.69;;;8.87;100.00
11856;BME280;5987;53.140;8.904;2022-11-11T07:31:01;102798.91;;;8.86;100.00
11856;BME280;5987;53.140;8.904;2022-11-11T07:34:04;102804.16;;;8.83;100.00
11856;BME280;5987;53.140;8.904;2022-11-11T07:37:10;102815.53;;;8.86;100.00
11856;BME280;5987;53.140;8.904;2022-11-11T07:40:16;102827.72;;;8.86;100.00
11856;BME280;5987;53.140;8.904;2022-11-11T07:43:20;102828.63;;;8.85;100.00
11856;BME280;5987;53.140;8.904;2022-11-11T07:46:26;102826.88;;;8.84;100.00
11856;BME280;5987;53.140;8.904;2022-11-11T07:49:29;102833.88;;;8.88;100.00
11856;BME280;5987;53.140;8.904;2022-11-11T07:52:34;102832.13;;;8.91;100.00
11856;BME280;5987;53.140;8.904;2022-11-11T07:55:39;102830.38;;;8.89;100.00
11856;BME280;5987;53.140;8.904;2022-11-11T07:58:42;102831.25;;;8.92;100.00
11856;BME280;5987;53.140;8.904;2022-11-11T08:01:46;102826.00;;;8.92;100.00
11856;BME280;5987;53.140;8.904;2022-11-11T08:04:50;102829.50;;;8.88;100.00
11856;BME280;5987;53.140;8.904;2022-11-11T08:08:03;102829.53;;;8.93;100.00
11856;BME280;5987;53.140;8.904;2022-11-11T08:11:07;102832.16;;;8.93;100.00
11856;BME280;5987;53.140;8.904;2022-11-11T08:14:11;102838.25;;;8.90;100.00
11856;BME280;5987;53.140;8.904;2022-11-11T08:17:13;102840.00;;;8.93;100.00
11856;BME280;5987;53.140;8.904;2022-11-11T08:20:17;102847.84;;;8.90;100.00
11856;BME280;5987;53.140;8.904;2022-11-11T08:23:22;102842.59;;;8.87;100.00
11856;BME280;5987;53.140;8.904;2022-11-11T08:26:53;102857.41;;;8.80;100.00
11856;BME280;5987;53.140;8.904;2022-11-11T08:29:57;102867.06;;;8.89;100.00
11856;BME280;5987;53.140;8.904;2022-11-11T08:33:04;102881.03;;;8.91;100.00
11856;BME280;5987;53.140;8.904;2022-11-11T08:36:28;102884.53;;;8.93;100.00
11856;BME280;5987;53.140;8.904;2022-11-11T08:39:33;102881.88;;;8.91;100.00
11856;BME280;5987;53.140;8.904;2022-11-11T08:42:36;102880.16;;;8.92;100.00
11856;BME280;5987;53.140;8.904;2022-11-11T08:45:40;102889.75;;;8.90;100.00
11856;BME280;5987;53.140;8.904;2022-11-11T08:48:44;102882.75;;;8.83;100.00
11856;BME280;5987;53.140;8.904;2022-11-11T08:51:48;102885.38;;;8.87;100.00
11856;BME280;5987;53.140;8.904;2022-11-11T08:54:54;102885.41;;;8.95;100.00
11856;BME280;5987;53.140;8.904;2022-11-11T08:57:58;102898.50;;;8.90;100.00
11856;BME280;5987;53.140;8.904;2022-11-11T09:01:02;102904.59;;;8.92;100.00
11856;BME280;5987;53.140;8.904;2022-11-11T09:04:06;102895.91;;;9.01;100.00
11856;BME280;5987;53.140;8.904;2022-11-11T09:07:30;102894.19;;;9.08;100.00
11856;BME280;5987;53.140;8.904;2022-11-11T09:10:36;102900.28;;;9.08;100.00
11856;BME280;5987;53.140;8.904;2022-11-11T09:13:39;102893.31;;;9.10;100.00
11856;BME280;5987;53.140;8.904;2022-11-11T09:16:43;102914.28;;;9.18;100.00
11856;BME280;5987;53.140;8.904;2022-11-11T09:19:46;102914.28;;;9.10;100.00
11856;BME280;5987;53.140;8.904;2022-11-11T09:22:50;102923.00;;;9.13;100.00
11856;BME280;5987;53.140;8.904;2022-11-11T09:25:59;102923.00;;;9.13;100.00
11856;BME280;5987;53.140;8.904;2022-11-11T09:29:05;102925.63;;;9.08;100.00
11856;BME280;5987;53.140;8.904;2022-11-11T09:32:09;102922.16;;;9.12;100.00
11856;BME280;5987;53.140;8.904;2022-11-11T09:35:12;102929.16;;;9.10;100.00
11856;BME280;5987;53.140;8.904;2022-11-11T09:38:16;102922.16;;;9.17;100.00
11856;BME280;5987;53.140;8.904;2022-11-11T09:41:33;102924.81;;;9.26;100.00
11856;BME280;5987;53.140;8.904;2022-11-11T09:45:14;102932.66;;;9.24;100.00
11856;BME280;5987;53.140;8.904;2022-11-11T09:48:49;102932.66;;;9.24;100.00
11856;BME280;5987;53.140;8.904;2022-11-11T09:52:03;102928.31;;;9.34;100.00
11856;BME280;5987;53.140;8.904;2022-11-11T09:55:16;102934.38;;;9.16;100.00
11856;BME280;5987;53.140;8.904;2022-11-11T09:58:28;102929.16;;;9.22;100.00
11856;BME280;5987;53.140;8.904;2022-11-11T10:01:41;102929.19;;;9.30;100.00
11856;BME280;5987;53.140;8.904;2022-11-11T10:04:56;102933.53;;;9.22;100.00
11856;BME280;5987;53.140;8.904;2022-11-11T10:08:12;102932.63;;;9.18;100.00
11856;BME280;5987;53.140;8.904;2022-11-11T10:11:26;102930.03;;;9.23;100.00
11856;BME280;5987;53.140;8.904;2022-11-11T10:14:36;102937.91;;;9.26;100.00
11856;BME280;5987;53.140;8.904;2022-11-11T10:17:55;102933.53;;;9.23;100.00
11856;BME280;5987;53.140;8.904;2022-11-11T10:21:12;102935.31;;;9.35;100.00
11856;BME280;5987;53.140;8.904;2022-11-11T10:24:28;102932.69;;;9.48;100.00
11856;BME280;5987;53.140;8.904;2022-11-11T10:27:33;102940.63;;;9.66;100.00
11856;BME280;5987;53.140;8.904;2022-11-11T10:30:38;102933.59;;;9.53;100.00
11856;BME280;5987;53.140;8.904;2022-11-11T10:33:49;102930.09;;;9.48;100.00
11856;BME280;5987;53.140;8.904;2022-11-11T10:36:55;102935.31;;;9.46;100.00
11856;BME280;5987;53.140;8.904;2022-11-11T10:40:12;102933.59;;;9.59;100.00
11856;BME280;5987;53.140;8.904;2022-11-11T10:43:23;102938.84;;;9.56;100.00
11856;BME280;5987;53.140;8.904;2022-11-11T10:46:33;102925.75;;;9.68;100.00
11856;BME280;5987;53.140;8.904;2022-11-11T10:49:52;102940.63;;;9.66;100.00
11856;BME280;5987;53.140;8.904;2022-11-11T10:53:07;102942.34;;;9.69;100.00
11856;BME280;5987;53.140;8.904;2022-11-11T10:56:22;102929.25;;;9.61;100.00
11856;BME280;5987;53.140;8.904;2022-11-11T10:59:34;102929.22;;;9.70;100.00
11856;BME280;5987;53.140;8.904;2022-11-11T11:02:49;102920.50;;;9.77;100.00
11856;BME280;5987;53.140;8.904;2022-11-11T11:06:05;102926.63;;;9.92;100.00
11856;BME280;5987;53.140;8.904;2022-11-11T11:09:18;102928.38;;;9.99;100.00
11856;BME280;5987;53.140;8.904;2022-11-11T11:12:29;102929.25;;;9.96;100.00
11856;BME280;5987;53.140;8.904;2022-11-11T11:15:40;102927.50;;;9.92;100.00
11856;BME280;5987;53.140;8.904;2022-11-11T11:19:14;102928.34;;;10.05;100.00
11856;BME280;5987;53.140;8.904;2022-11-11T11:22:18;102930.97;;;10.19;100.00
11856;BME280;5987;53.140;8.904;2022-11-11T11:25:25;102930.09;;;10.40;100.00
11856;BME280;5987;53.140;8.904;2022-11-11T11:28:31;102922.16;;;10.63;100.00
11856;BME280;5987;53.140;8.904;2022-11-11T11:31:37;102917.72;;;10.78;100.00
11856;BME280;5987;53.140;8.904;2022-11-11T11:34:49;102919.41;;;10.90;100.00
11856;BME280;5987;53.140;8.904;2022-11-11T11:37:53;102901.00;;;10.96;100.00
11856;BME280;5987;53.140;8.904;2022-11-11T11:40:57;102903.63;;;10.90;100.00
11856;BME280;5987;53.140;8.904;2022-11-11T11:44:01;102899.28;;;10.89;100.00
11856;BME280;5987;53.140;8.904;2022-11-11T11:47:23;102903.56;;;11.04;100.00
11856;BME280;5987;53.140;8.904;2022-11-11T11:50:47;102894.78;;;11.06;100.00
11856;BME280;5987;53.140;8.904;2022-11-11T11:54:40;102892.84;;;11.39;100.00
11856;BME280;5987;53.140;8.904;2022-11-11T11:58:02;102898.06;;;11.45;100.00
11856;BME280;5987;53.140;8.904;2022-11-11T12:01:16;102894.34;;;11.71;100.00
11856;BME280;5987;53.140;8.904;2022-11-11T12:05:00;102891.81;;;11.62;100.00
11856;BME280;5987;53.140;8.904;2022-11-11T12:08:26;102879.50;;;11.64;100.00
11856;BME280;5987;53.140;8.904;2022-11-11T12:11:41;102877.75;;;11.61;100.00
11856;BME280;5987;53.140;8.904;2022-11-11T12:15:05;102870.78;;;11.56;100.00
11856;BME280;5987;53.140;8.904;2022-11-11T12:18:38;102875.03;;;11.72;100.00
11856;BME280;5987;53.140;8.904;2022-11-11T12:21:57;102881.09;;;11.82;100.00
11856;BME280;5987;53.140;8.904;2022-11-11T12:25:17;102869.69;;;11.84;100.00
11856;BME280;5987;53.140;8.904;2022-11-11T12:28:41;102867.88;;;11.87;100.00
11856;BME280;5987;53.140;8.904;2022-11-11T12:32:05;102871.31;;;11.99;100.00
11856;BME280;5987;53.140;8.904;2022-11-11T12:35:32;102862.47;;;12.05;100.00
11856;BME280;5987;53.140;8.904;2022-11-11T12:38:51;102861.44;;;12.20;100.00
11856;BME280;5987;53.140;8.904;2022-11-11T12:42:15;102862.28;;;12.24;100.00
11856;BME280;5987;53.140;8.904;2022-11-11T12:45:32;102863.06;;;12.30;100.00
11856;BME280;5987;53.140;8.904;2022-11-11T12:48:56;102872.66;;;12.36;100.00
11856;BME280;5987;53.140;8.904;2022-11-11T12:52:17;102874.25;;;12.51;100.00
11856;BME280;5987;53.140;8.904;2022-11-11T12:55:38;102863.88;;;12.37;100.00
11856;BME280;5987;53.140;8.904;2022-11-11T12:58:55;102864.66;;;12.47;100.00
11856;BME280;5987;53.140;8.904;2022-11-11T13:02:19;102868.06;;;12.55;100.00
11856;BME280;5987;53.140;8.904;2022-11-11T13:05:33;102873.41;;;12.47;100.00
11856;BME280;5987;53.140;8.904;2022-11-11T13:09:32;102874.41;;;12.37;100.00
11856;BME280;5987;53.140;8.904;2022-11-11T13:12:49;102874.47;;;12.34;100.00
11856;BME280;5987;53.140;8.904;2022-11-11T13:16:01;102869.09;;;12.40;100.00
11856;BME280;5987;53.140;8.904;2022-11-11T13:19:15;102862.13;;;12.36;100.00
11856;BME280;5987;53.140;8.904;2022-11-11T13:22:25;102867.38;;;12.39;100.00
11856;BME280;5987;53.140;8.904;2022-11-11T13:25:33;102873.59;;;12.33;100.00
11856;BME280;5987;53.140;8.904;2022-11-11T13:28:47;102884.16;;;12.30;100.00
11856;BME280;5987;53.140;8.904;2022-11-11T13:31:54;102881.63;;;12.23;100.00
11856;BME280;5987;53.140;8.904;2022-11-11T13:34:59;102885.19;;;12.15;100.00
11856;BME280;5987;53.140;8.904;2022-11-11T13:38:03;102888.78;;;12.10;100.00
11856;BME280;5987;53.140;8.904;2022-11-11T13:41:07;102893.16;;;12.09;100.00
11856;BME280;5987;53.140;8.904;2022-11-11T13:44:23;102890.59;;;12.03;100.00
11856;BME280;5987;53.140;8.904;2022-11-11T13:47:35;102885.31;;;12.03;100.00
11856;BME280;5987;53.140;8.904;2022-11-11T13:50:40;102891.50;;;11.99;100.00
11856;BME280;5987;53.140;8.904;2022-11-11T13:53:47;102894.19;;;11.90;100.00
11856;BME280;5987;53.140;8.904;2022-11-11T13:56:52;102887.16;;;11.90;100.00
11856;BME280;5987;53.140;8.904;2022-11-11T14:00:06;102888.97;;;11.85;100.00
11856;BME280;5987;53.140;8.904;2022-11-11T14:04:03;102896.88;;;11.83;100.00
11856;BME280;5987;53.140;8.904;2022-11-11T14:07:07;102891.59;;;11.83;100.00
11856;BME280;5987;53.140;8.904;2022-11-11T14:10:49;102898.66;;;11.81;100.00
11856;BME280;5987;53.140;8.904;2022-11-11T14:13:55;102894.31;;;11.74;100.00
11856;BME280;5987;53.140;8.904;2022-11-11T14:17:03;102903.16;;;11.70;100.00
11856;BME280;5987;53.140;8.904;2022-11-11T14:20:37;102907.50;;;11.71;100.00
11856;BME280;5987;53.140;8.904;2022-11-11T14:23:43;102909.31;;;11.66;100.00
11856;BME280;5987;53.140;8.904;2022-11-11T14:26:58;102913.72;;;11.62;100.00
11856;BME280;5987;53.140;8.904;2022-11-11T14:30:02;102904.06;;;11.64;100.00
11856;BME280;5987;53.140;8.904;2022-11-11T14:33:20;102905.81;;;11.64;100.00
11856;BME280;5987;53.140;8.904;2022-11-11T14:36:38;102908.50;;;11.58;100.00
11856;BME280;5987;53.140;8.904;2022-11-11T14:39:50;102913.78;;;11.56;100.00
11856;BME280;5987;53.140;8.904;2022-11-11T14:42:54;102914.69;;;11.52;100.00
11856;BME280;5987;53.140;8.904;2022-11-11T14:46:03;102914.66;;;11.54;100.00
11856;BME280;5987;53.140;8.904;2022-11-11T14:49:07;102920.84;;;11.46;100.00
11856;BME280;5987;53.140;8.904;2022-11-11T14:52:22;102927.88;;;11.44;100.00
11856;BME280;5987;53.140;8.904;2022-11-11T14:55:31;102922.66;;;11.38;100.00
11856;BME280;5987;53.140;8.904;2022-11-11T14:58:36;102924.41;;;11.36;100.00
11856;BME280;5987;53.140;8.904;2022-11-11T15:01:40;102922.69;;;11.33;100.00
11856;BME280;5987;53.140;8.904;2022-11-11T15:04:49;102930.59;;;11.29;100.00
11856;BME280;5987;53.140;8.904;2022-11-11T15:08:05;102936.78;;;11.22;100.00
11856;BME280;5987;53.140;8.904;2022-11-11T15:11:25;102935.03;;;11.18;100.00
11856;BME280;5987;53.140;8.904;2022-11-11T15:14:42;102937.75;;;11.04;100.00
11856;BME280;5987;53.140;8.904;2022-11-11T15:18:04;102941.28;;;10.98;100.00
11856;BME280;5987;53.140;8.904;2022-11-11T15:21:18;102942.22;;;10.85;100.00
11856;BME280;5987;53.140;8.904;2022-11-11T15:24:38;102943.13;;;10.73;100.00
11856;BME280;5987;53.140;8.904;2022-11-11T15:27:54;102958.06;;;10.60;100.00
11856;BME280;5987;53.140;8.904;2022-11-11T15:31:09;102954.53;;;10.64;100.00
11856;BME280;5987;53.140;8.904;2022-11-11T15:34:29;102956.31;;;10.56;100.00
11856;BME280;5987;53.140;8.904;2022-11-11T15:37:37;102958.09;;;10.44;100.00
11856;BME280;5987;53.140;8.904;2022-11-11T15:40:47;102962.47;;;10.36;100.00
11856;BME280;5987;53.140;8.904;2022-11-11T15:43:52;102960.72;;;10.27;100.00
11856;BME280;5987;53.140;8.904;2022-11-11T15:46:57;102965.13;;;10.24;100.00
11856;BME280;5987;53.140;8.904;2022-11-11T15:50:05;102965.97;;;10.18;100.00
11856;BME280;5987;53.140;8.904;2022-11-11T15:53:23;102965.13;;;10.11;100.00
11856;BME280;5987;53.140;8.904;2022-11-11T15:56:31;102965.97;;;10.13;100.00
11856;BME280;5987;53.140;8.904;2022-11-11T15:59:35;102962.50;;;9.99;100.00
11856;BME280;5987;53.140;8.904;2022-11-11T16:02:42;102972.09;;;9.86;100.00
11856;BME280;5987;53.140;8.904;2022-11-11T16:05:45;102966.84;;;9.78;100.00
11856;BME280;5987;53.140;8.904;2022-11-11T16:08:53;102967.72;;;9.71;100.00
11856;BME280;5987;53.140;8.904;2022-11-11T16:12:00;102973.81;;;9.63;100.00
11856;BME280;5987;53.140;8.904;2022-11-11T16:15:08;102976.44;;;9.64;100.00
11856;BME280;5987;53.140;8.904;2022-11-11T16:18:17;102973.81;;;9.61;100.00
11856;BME280;5987;53.140;8.904;2022-11-11T16:21:28;102986.91;;;9.42;100.00
11856;BME280;5987;53.140;8.904;2022-11-11T16:24:38;102986.00;;;9.37;100.00
11856;BME280;5987;53.140;8.904;2022-11-11T16:27:44;102985.09;;;9.29;100.00
11856;BME280;5987;53.140;8.904;2022-11-11T16:30:48;102989.47;;;9.30;100.00
11856;BME280;5987;53.140;8.904;2022-11-11T16:33:52;102992.94;;;9.20;100.00
11856;BME280;5987;53.140;8.904;2022-11-11T16:36:59;103003.44;;;9.32;100.00
11856;BME280;5987;53.140;8.904;2022-11-11T16:40:32;103005.16;;;9.21;100.00
11856;BME280;5987;53.140;8.904;2022-11-11T16:43:42;103006.00;;;9.12;100.00